Terminal Aerodrome Forecast
Issued by NWS

Home | Current Version | Previous Version | Text Only | Print | Product List | Glossary On
Versions: 1 2 3 4 5 6 7 8 9 10 11 12 13 14 15 16 17 18 19
000
FTUS45 KTFX 280301 CCA
TAFGTF
TAF COR
KGTF 280301Z 2803/2824 06012KT P6SM VCTS SCT080CB BKN150
      TEMPO 2803/2804 30015G30KT P6SM -TSRA BKN050CB
     FM280400 29012KT P6SM VCTS SCT080CB BKN150
     FM280500 VRB05KT P6SM SCT150=

USA.gov is the U.S. government's official web portal to all federal, state and local government web resources and services.